createdAt,value
2022-09-28T00:00:00.501Z,991.45
2022-09-28T00:01:00.501Z,991.50
2022-09-28T00:02:00.599Z,991.46
2022-09-28T00:03:00.558Z,991.41
2022-09-28T00:04:00.457Z,991.47
2022-09-28T00:05:00.439Z,991.46
2022-09-28T00:06:00.419Z,991.46
2022-09-28T00:07:00.449Z,991.43
2022-09-28T00:08:00.399Z,991.41
2022-09-28T00:09:00.390Z,991.41
2022-09-28T00:10:00.382Z,991.45
2022-09-28T00:11:00.368Z,991.45
2022-09-28T00:12:00.359Z,991.44
2022-09-28T00:13:00.341Z,991.48
2022-09-28T00:14:00.322Z,991.49
2022-09-28T00:15:00.309Z,991.50
2022-09-28T00:16:00.435Z,991.54
2022-09-28T00:17:00.281Z,991.48
2022-09-28T00:18:00.289Z,991.51
2022-09-28T00:19:00.258Z,991.55
2022-09-28T00:20:00.243Z,991.53
2022-09-28T00:21:00.228Z,991.49
2022-09-28T00:22:00.218Z,991.48
2022-09-28T00:23:00.210Z,991.53
2022-09-28T00:24:00.210Z,991.53
2022-09-28T00:25:00.199Z,991.53
2022-09-28T00:26:00.190Z,991.53
2022-09-28T00:27:00.157Z,991.52
2022-09-28T00:28:00.140Z,991.51
2022-09-28T00:29:00.129Z,991.43
2022-09-28T00:30:00.152Z,991.49
2022-09-28T00:31:00.109Z,991.47
2022-09-28T00:32:00.306Z,991.42
2022-09-28T00:33:00.082Z,991.44
2022-09-28T00:34:00.081Z,991.43
2022-09-28T00:35:00.112Z,991.39
2022-09-28T00:36:00.041Z,991.42
2022-09-28T00:37:00.041Z,991.39
2022-09-28T00:38:00.022Z,991.40
2022-09-28T00:39:00.010Z,991.39
2022-09-28T00:39:59.979Z,991.37
2022-09-28T00:41:00.025Z,991.39
2022-09-28T00:41:59.960Z,991.35
2022-09-28T00:42:59.961Z,991.37
2022-09-28T00:43:59.941Z,991.35
2022-09-28T00:44:59.932Z,991.33
2022-09-28T00:46:00.032Z,991.31
2022-09-28T00:46:59.901Z,991.28
2022-09-28T00:47:59.900Z,991.32
2022-09-28T00:48:59.880Z,991.29
2022-09-28T00:49:59.860Z,991.26
2022-09-28T00:50:59.850Z,991.30
2022-09-28T00:51:59.840Z,991.28
2022-09-28T00:52:59.850Z,991.30
2022-09-28T00:53:59.810Z,991.30
2022-09-28T00:54:59.801Z,991.27
2022-09-28T00:55:59.778Z,991.29
2022-09-28T00:56:59.778Z,991.27
2022-09-28T00:57:59.760Z,991.28
2022-09-28T00:58:59.759Z,991.27
2022-09-28T00:59:59.731Z,991.30
2022-09-28T01:00:59.798Z,991.29
2022-09-28T01:02:06.756Z,991.29
2022-09-28T01:02:59.705Z,991.30
2022-09-28T01:03:59.683Z,991.27
2022-09-28T01:04:59.685Z,991.30
2022-09-28T01:05:59.665Z,991.28
2022-09-28T01:06:59.648Z,991.31
2022-09-28T01:07:59.694Z,991.29
2022-09-28T01:08:59.639Z,991.31
2022-09-28T01:09:59.598Z,991.34
2022-09-28T01:10:59.614Z,991.34
2022-09-28T01:11:59.609Z,991.30
2022-09-28T01:12:59.570Z,991.33
2022-09-28T01:13:59.573Z,991.30
2022-09-28T01:14:59.537Z,991.31
2022-09-28T01:15:59.581Z,991.23
2022-09-28T01:16:59.529Z,991.25
2022-09-28T01:17:59.523Z,991.21
2022-09-28T01:18:59.495Z,991.27
2022-09-28T01:19:59.483Z,991.24
2022-09-28T01:20:59.544Z,991.23
2022-09-28T01:21:59.456Z,991.25
2022-09-28T01:22:59.445Z,991.18
2022-09-28T01:23:59.437Z,991.20
2022-09-28T01:24:59.429Z,991.17
2022-09-28T01:25:59.393Z,991.19
2022-09-28T01:26:59.385Z,991.13
2022-09-28T01:27:59.367Z,991.15
2022-09-28T01:28:59.364Z,991.21
2022-09-28T01:29:59.358Z,991.16
2022-09-28T01:30:59.343Z,991.16
2022-09-28T01:31:59.466Z,991.19
2022-09-28T01:32:59.323Z,991.17
2022-09-28T01:33:59.293Z,991.14
2022-09-28T01:34:59.315Z,991.16
2022-09-28T01:35:59.306Z,991.20
2022-09-28T01:36:59.260Z,991.18
2022-09-28T01:37:59.235Z,991.14
2022-09-28T01:38:59.237Z,991.16
2022-09-28T01:39:59.216Z,991.12
2022-09-28T01:40:59.243Z,991.13
2022-09-28T01:41:59.197Z,991.11
2022-09-28T01:42:59.186Z,991.11
2022-09-28T01:43:59.166Z,991.13
2022-09-28T01:44:59.157Z,991.13
2022-09-28T01:45:59.181Z,991.08
2022-09-28T01:46:59.148Z,991.09
2022-09-28T01:47:59.115Z,991.04
2022-09-28T01:48:59.104Z,991.10
2022-09-28T01:49:59.089Z,991.11
2022-09-28T01:50:59.100Z,991.12
2022-09-28T01:51:59.060Z,991.02
2022-09-28T01:52:59.070Z,991.08
2022-09-28T01:53:59.045Z,991.03
2022-09-28T01:54:59.021Z,991.05
2022-09-28T01:55:59.005Z,991.04
2022-09-28T01:56:59.018Z,991.07
2022-09-28T01:57:58.984Z,991.00
2022-09-28T01:58:58.976Z,991.04
2022-09-28T01:59:58.967Z,990.98
2022-09-28T02:00:58.995Z,990.97
2022-09-28T02:01:59.021Z,990.97
2022-09-28T02:02:58.929Z,990.96
2022-09-28T02:03:58.915Z,990.92
2022-09-28T02:04:58.886Z,990.95
2022-09-28T02:05:58.886Z,990.96
2022-09-28T02:06:58.875Z,990.91
2022-09-28T02:07:58.845Z,990.93
2022-09-28T02:08:58.856Z,990.91
2022-09-28T02:09:58.827Z,990.96
2022-09-28T02:10:58.832Z,990.92
2022-09-28T02:11:58.796Z,990.97
2022-09-28T02:12:58.818Z,990.96
2022-09-28T02:13:58.775Z,990.99
2022-09-28T02:14:58.778Z,990.97
2022-09-28T02:15:58.773Z,990.98
2022-09-28T02:16:58.748Z,990.95
2022-09-28T02:17:58.737Z,990.97
2022-09-28T02:18:58.740Z,990.96
2022-09-28T02:19:58.700Z,990.95
2022-09-28T02:20:58.731Z,990.98
2022-09-28T02:21:58.665Z,990.93
2022-09-28T02:22:58.665Z,990.95
2022-09-28T02:23:58.655Z,990.96
2022-09-28T02:24:58.640Z,990.90
2022-09-28T02:25:58.623Z,990.97
2022-09-28T02:26:58.606Z,990.93
2022-09-28T02:27:58.601Z,990.94
2022-09-28T02:28:58.597Z,990.94
2022-09-28T02:29:58.576Z,990.89
2022-09-28T02:30:58.570Z,990.97
2022-09-28T02:31:58.547Z,990.90
2022-09-28T02:32:58.536Z,990.92
2022-09-28T02:33:58.532Z,990.97
2022-09-28T02:34:58.521Z,990.89
2022-09-28T02:35:58.497Z,990.96
2022-09-28T02:36:58.492Z,990.89
2022-09-28T02:37:58.472Z,990.90
2022-09-28T02:38:58.457Z,990.92
2022-09-28T02:39:58.456Z,990.88
2022-09-28T02:40:58.500Z,990.84
2022-09-28T02:41:58.424Z,990.91
2022-09-28T02:42:58.424Z,990.97
2022-09-28T02:43:58.388Z,990.90
2022-09-28T02:44:58.373Z,990.99
2022-09-28T02:45:58.419Z,990.89
2022-09-28T02:46:58.377Z,990.95
2022-09-28T02:47:58.339Z,990.93
2022-09-28T02:49:17.508Z,990.95
2022-09-28T02:49:59.337Z,990.92
2022-09-28T02:50:58.317Z,990.92
2022-09-28T02:51:58.298Z,990.92
2022-09-28T02:52:58.289Z,990.94
2022-09-28T02:53:58.286Z,990.91
2022-09-28T02:54:58.244Z,990.93
2022-09-28T02:55:58.237Z,990.85
2022-09-28T02:56:58.247Z,990.84
2022-09-28T02:57:58.208Z,990.89
2022-09-28T02:58:58.207Z,990.86
2022-09-28T02:59:58.184Z,990.81
2022-09-28T03:00:58.251Z,990.85
2022-09-28T03:01:58.218Z,990.80
2022-09-28T03:02:58.166Z,990.78
2022-09-28T03:03:58.168Z,990.79
2022-09-28T03:04:58.136Z,990.81
2022-09-28T03:05:58.116Z,990.74
2022-09-28T03:06:58.130Z,990.80
2022-09-28T03:07:58.089Z,990.72
2022-09-28T03:08:58.065Z,990.75
2022-09-28T03:09:58.066Z,990.78
2022-09-28T03:10:58.041Z,990.74
2022-09-28T03:11:58.047Z,990.71
2022-09-28T03:12:58.036Z,990.71
2022-09-28T03:13:58.005Z,990.64
2022-09-28T03:14:58.071Z,990.70
2022-09-28T03:15:58.026Z,990.66
2022-09-28T03:16:58.019Z,990.73
2022-09-28T03:17:57.991Z,990.73
2022-09-28T03:18:57.947Z,990.65
2022-09-28T03:19:57.938Z,990.67
2022-09-28T03:20:57.935Z,990.67
2022-09-28T03:21:57.914Z,990.65
2022-09-28T03:23:22.700Z,990.68
2022-09-28T03:23:58.917Z,990.67
2022-09-28T03:24:57.858Z,990.65
2022-09-28T03:25:57.873Z,990.64
2022-09-28T03:26:57.844Z,990.59
2022-09-28T03:27:57.829Z,990.59
2022-09-28T03:28:57.816Z,990.59
2022-09-28T03:29:57.799Z,990.65
2022-09-28T03:30:57.792Z,990.64
2022-09-28T03:31:57.841Z,990.62
2022-09-28T03:32:57.779Z,990.55
2022-09-28T03:33:57.769Z,990.62
2022-09-28T03:34:57.768Z,990.60
2022-09-28T03:35:57.731Z,990.59
2022-09-28T03:36:57.715Z,990.59
2022-09-28T03:37:57.722Z,990.57
2022-09-28T03:38:57.720Z,990.57
2022-09-28T03:39:57.698Z,990.59
2022-09-28T03:40:57.708Z,990.53
2022-09-28T03:41:57.698Z,990.53
2022-09-28T03:42:57.702Z,990.56
2022-09-28T03:43:57.618Z,990.57
2022-09-28T03:44:57.618Z,990.54
2022-09-28T03:45:57.697Z,990.52
2022-09-28T03:46:57.580Z,990.55
2022-09-28T03:47:57.569Z,990.49
2022-09-28T03:48:57.575Z,990.50
2022-09-28T03:49:57.558Z,990.52
2022-09-28T03:50:57.528Z,990.53
2022-09-28T03:51:57.517Z,990.45
2022-09-28T03:52:57.527Z,990.47
2022-09-28T03:53:57.488Z,990.50
2022-09-28T03:54:57.487Z,990.48
2022-09-28T03:55:57.467Z,990.51
2022-09-28T03:56:57.458Z,990.43
2022-09-28T03:57:57.439Z,990.44
2022-09-28T03:58:57.419Z,990.47
2022-09-28T03:59:57.419Z,990.39
2022-09-28T04:00:57.508Z,990.40
2022-09-28T04:01:57.442Z,990.43
2022-09-28T04:02:57.378Z,990.35
2022-09-28T04:03:57.361Z,990.34
2022-09-28T04:04:57.352Z,990.36
2022-09-28T04:05:57.368Z,990.30
2022-09-28T04:06:57.322Z,990.31
2022-09-28T04:07:57.317Z,990.24
2022-09-28T04:08:57.290Z,990.30
2022-09-28T04:09:57.289Z,990.29
2022-09-28T04:10:57.267Z,990.25
2022-09-28T04:12:03.876Z,990.25
2022-09-28T04:12:58.257Z,990.27
2022-09-28T04:13:57.248Z,990.26
2022-09-28T04:14:57.228Z,990.24
2022-09-28T04:15:57.367Z,990.25
2022-09-28T04:16:57.232Z,990.22
2022-09-28T04:17:57.227Z,990.25
2022-09-28T04:18:57.178Z,990.22
2022-09-28T04:19:57.171Z,990.25
2022-09-28T04:20:57.140Z,990.31
2022-09-28T04:21:57.129Z,990.26
2022-09-28T04:22:57.120Z,990.31
2022-09-28T04:23:57.107Z,990.28
2022-09-28T04:24:57.131Z,990.28
2022-09-28T04:25:57.079Z,990.26
2022-09-28T04:26:57.061Z,990.26
2022-09-28T04:27:57.078Z,990.33
2022-09-28T04:28:57.056Z,990.22
2022-09-28T04:29:57.079Z,990.28
2022-09-28T04:30:57.020Z,990.26
2022-09-28T04:31:57.059Z,990.22
2022-09-28T04:32:57.010Z,990.25
2022-09-28T04:33:57.039Z,990.22
2022-09-28T04:34:56.980Z,990.22
2022-09-28T04:35:56.961Z,990.26
2022-09-28T04:36:56.931Z,990.29
2022-09-28T04:37:56.948Z,990.26
2022-09-28T04:38:56.918Z,990.22
2022-09-28T04:39:56.900Z,990.24
2022-09-28T04:40:56.923Z,990.24
2022-09-28T04:41:56.880Z,990.24
2022-09-28T04:42:56.870Z,990.26
2022-09-28T04:43:56.860Z,990.28
2022-09-28T04:44:56.833Z,990.27
2022-09-28T04:45:56.915Z,990.27
2022-09-28T04:46:56.810Z,990.31
2022-09-28T04:47:56.818Z,990.29
2022-09-28T04:48:56.818Z,990.28
2022-09-28T04:49:56.773Z,990.27
2022-09-28T04:50:56.771Z,990.29
2022-09-28T04:51:56.774Z,990.31
2022-09-28T04:52:56.810Z,990.30
2022-09-28T04:53:56.744Z,990.28
2022-09-28T04:54:56.728Z,990.28
2022-09-28T04:55:56.731Z,990.23
2022-09-28T04:56:56.690Z,990.23
2022-09-28T04:57:56.679Z,990.17
2022-09-28T04:58:56.658Z,990.23
2022-09-28T04:59:56.681Z,990.27
2022-09-28T05:00:56.644Z,990.22
2022-09-28T05:01:56.694Z,990.23
2022-09-28T05:02:56.602Z,990.32
2022-09-28T05:03:56.590Z,990.29
2022-09-28T05:04:56.581Z,990.33
2022-09-28T05:05:56.558Z,990.34
2022-09-28T05:06:56.597Z,990.32
2022-09-28T05:07:56.547Z,990.32
2022-09-28T05:08:56.561Z,990.40
2022-09-28T05:09:56.521Z,990.36
2022-09-28T05:10:56.520Z,990.33
2022-09-28T05:11:56.491Z,990.36
2022-09-28T05:12:56.499Z,990.35
2022-09-28T05:13:56.461Z,990.37
2022-09-28T05:14:56.519Z,990.37
2022-09-28T05:15:59.695Z,990.36
2022-09-28T05:16:57.495Z,990.38
2022-09-28T05:17:56.413Z,990.37
2022-09-28T05:18:56.398Z,990.33
2022-09-28T05:19:56.388Z,990.33
2022-09-28T05:20:56.378Z,990.36
2022-09-28T05:21:56.379Z,990.38
2022-09-28T05:22:56.360Z,990.39
2022-09-28T05:23:56.340Z,990.34
2022-09-28T05:24:56.330Z,990.35
2022-09-28T05:25:56.321Z,990.39
2022-09-28T05:26:56.340Z,990.29
2022-09-28T05:27:56.308Z,990.35
2022-09-28T05:28:56.302Z,990.32
2022-09-28T05:29:56.261Z,990.33
2022-09-28T05:30:56.248Z,990.31
2022-09-28T05:31:56.282Z,990.34
2022-09-28T05:32:56.211Z,990.32
2022-09-28T05:33:56.219Z,990.33
2022-09-28T05:34:56.190Z,990.39
2022-09-28T05:36:00.907Z,990.39
2022-09-28T05:36:57.171Z,990.33
2022-09-28T05:37:56.156Z,990.41
2022-09-28T05:38:56.142Z,990.38
2022-09-28T05:39:56.141Z,990.30
2022-09-28T05:40:56.219Z,990.33
2022-09-28T05:41:56.104Z,990.35
2022-09-28T05:42:56.094Z,990.39
2022-09-28T05:43:56.098Z,990.39
2022-09-28T05:44:56.060Z,990.33
2022-09-28T05:45:56.191Z,990.37
2022-09-28T05:46:56.030Z,990.34
2022-09-28T05:47:56.020Z,990.35
2022-09-28T05:48:56.040Z,990.29
2022-09-28T05:49:56.022Z,990.37
2022-09-28T05:50:55.992Z,990.35
2022-09-28T05:51:56.005Z,990.30
2022-09-28T05:52:55.971Z,990.33
2022-09-28T05:53:55.973Z,990.39
2022-09-28T05:54:55.942Z,990.38
2022-09-28T05:55:55.932Z,990.34
2022-09-28T05:56:55.930Z,990.35
2022-09-28T05:57:55.892Z,990.31
2022-09-28T05:58:55.879Z,990.31
2022-09-28T05:59:55.933Z,990.25
2022-09-28T06:00:55.957Z,990.23
2022-09-28T06:01:55.872Z,990.20
2022-09-28T06:02:55.850Z,990.23
2022-09-28T06:03:55.810Z,990.15
2022-09-28T06:04:55.811Z,990.20
2022-09-28T06:05:55.833Z,990.14
2022-09-28T06:06:55.790Z,990.15
2022-09-28T06:07:55.777Z,990.12
2022-09-28T06:08:55.753Z,990.12
2022-09-28T06:09:55.763Z,990.10
2022-09-28T06:10:55.743Z,990.11
2022-09-28T06:11:55.723Z,990.08
2022-09-28T06:12:55.691Z,990.11
2022-09-28T06:13:55.689Z,990.07
2022-09-28T06:14:55.681Z,990.01
2022-09-28T06:15:55.662Z,990.00
2022-09-28T06:16:55.671Z,990.00
2022-09-28T06:17:55.649Z,989.95
2022-09-28T06:18:55.620Z,990.00
2022-09-28T06:19:55.614Z,989.99
2022-09-28T06:20:55.614Z,989.98
2022-09-28T06:21:57.554Z,989.99
2022-09-28T06:22:55.587Z,989.99
2022-09-28T06:23:55.575Z,989.97
2022-09-28T06:24:55.573Z,989.93
2022-09-28T06:25:55.541Z,989.96
2022-09-28T06:26:55.542Z,989.95
2022-09-28T06:27:55.523Z,989.93
2022-09-28T06:28:55.506Z,989.86
2022-09-28T06:29:55.491Z,989.96
2022-09-28T06:30:55.511Z,989.93
2022-09-28T06:31:55.451Z,989.95
2022-09-28T06:32:55.441Z,989.92
2022-09-28T06:33:55.453Z,989.90
2022-09-28T06:34:56.491Z,989.96
2022-09-28T06:35:55.413Z,989.95
2022-09-28T06:36:55.444Z,989.94
2022-09-28T06:37:55.382Z,989.89
2022-09-28T06:38:55.447Z,989.90
2022-09-28T06:39:55.353Z,989.90
2022-09-28T06:40:55.498Z,989.92
2022-09-28T06:41:55.332Z,989.91
2022-09-28T06:42:55.328Z,989.90
2022-09-28T06:43:55.304Z,989.95
2022-09-28T06:44:55.282Z,989.92
2022-09-28T06:45:55.401Z,989.89
2022-09-28T06:46:55.271Z,989.88
2022-09-28T06:47:55.253Z,989.95
2022-09-28T06:48:55.297Z,989.92
2022-09-28T06:49:55.238Z,989.96
2022-09-28T06:50:55.223Z,989.97
2022-09-28T06:51:55.203Z,989.96
2022-09-28T06:52:55.193Z,989.94
2022-09-28T06:53:55.162Z,989.91
2022-09-28T06:54:55.163Z,989.87
2022-09-28T06:55:55.165Z,989.90
2022-09-28T06:56:55.135Z,989.92
2022-09-28T06:57:55.131Z,989.92
2022-09-28T06:58:55.110Z,989.91
2022-09-28T06:59:55.094Z,989.83
2022-09-28T07:00:55.127Z,989.85
2022-09-28T07:01:55.208Z,989.81
2022-09-28T07:03:02.221Z,989.86
2022-09-28T07:03:55.910Z,989.84
2022-09-28T07:04:55.056Z,989.84
2022-09-28T07:05:55.045Z,989.82
2022-09-28T07:06:55.022Z,989.89
2022-09-28T07:07:55.014Z,989.80
2022-09-28T07:09:13.462Z,989.82
2022-09-28T07:09:56.008Z,989.80
2022-09-28T07:10:54.966Z,989.83
2022-09-28T07:11:54.944Z,989.81
2022-09-28T07:12:54.963Z,989.83
2022-09-28T07:13:54.933Z,989.82
2022-09-28T07:14:55.213Z,989.86
2022-09-28T07:15:54.939Z,989.80
2022-09-28T07:17:12.580Z,989.83
2022-09-28T07:18:02.175Z,989.82
2022-09-28T07:18:55.876Z,989.82
2022-09-28T07:19:54.848Z,989.79
2022-09-28T07:20:54.854Z,989.84
2022-09-28T07:22:04.188Z,989.84
2022-09-28T07:22:56.303Z,989.80
2022-09-28T07:23:54.809Z,989.87
2022-09-28T07:24:54.796Z,989.86
2022-09-28T07:25:54.884Z,989.88
2022-09-28T07:26:54.754Z,989.92
2022-09-28T07:27:54.738Z,989.90
2022-09-28T07:28:54.726Z,989.92
2022-09-28T07:29:54.725Z,989.93
2022-09-28T07:30:54.827Z,989.86
2022-09-28T07:31:54.687Z,989.92
2022-09-28T07:32:54.680Z,989.89
2022-09-28T07:33:54.667Z,989.90
2022-09-28T07:34:58.743Z,989.90
2022-09-28T07:35:54.637Z,989.94
2022-09-28T07:36:54.666Z,989.92
2022-09-28T07:37:54.608Z,989.90
2022-09-28T07:38:54.641Z,989.89
2022-09-28T07:39:54.606Z,989.88
2022-09-28T07:40:54.816Z,989.91
2022-09-28T07:41:59.629Z,989.88
2022-09-28T07:42:55.556Z,989.91
2022-09-28T07:43:54.538Z,989.85
2022-09-28T07:44:54.526Z,989.81
2022-09-28T07:45:54.565Z,989.92
2022-09-28T07:46:54.518Z,989.92
2022-09-28T07:47:54.488Z,989.93
2022-09-28T07:48:54.479Z,989.91
2022-09-28T07:49:54.476Z,989.88
2022-09-28T07:50:54.460Z,989.92
2022-09-28T07:51:54.428Z,989.94
2022-09-28T07:52:54.417Z,989.94
2022-09-28T07:53:54.399Z,989.85
2022-09-28T07:54:54.399Z,989.91
2022-09-28T07:55:54.399Z,989.88
2022-09-28T07:56:54.378Z,989.92
2022-09-28T07:57:54.369Z,989.91
2022-09-28T07:58:54.410Z,989.92
2022-09-28T07:59:54.339Z,989.91
2022-09-28T08:00:54.395Z,989.91
2022-09-28T08:01:54.359Z,989.95
2022-09-28T08:02:54.309Z,989.96
2022-09-28T08:03:54.278Z,989.88
2022-09-28T08:04:54.281Z,989.88
2022-09-28T08:05:54.267Z,989.87
2022-09-28T08:06:54.360Z,989.86
2022-09-28T08:07:54.228Z,989.87
2022-09-28T08:08:54.236Z,989.88
2022-09-28T08:09:54.199Z,989.81
2022-09-28T08:11:54.188Z,989.90
2022-09-28T08:12:54.181Z,989.87
2022-09-28T08:13:54.162Z,989.88
2022-09-28T08:14:54.149Z,989.92
2022-09-28T08:15:54.130Z,989.93
2022-09-28T08:16:54.153Z,989.91
2022-09-28T08:17:54.903Z,989.92
2022-09-28T08:18:54.079Z,989.90
2022-09-28T08:19:54.069Z,989.92
2022-09-28T08:20:54.060Z,989.89
2022-09-28T08:21:54.050Z,989.92
2022-09-28T08:22:54.030Z,989.92
2022-09-28T08:23:54.040Z,989.94
2022-09-28T08:24:54.007Z,989.90
2022-09-28T08:25:54.172Z,989.88
2022-09-28T08:26:53.988Z,989.90
2022-09-28T08:27:53.985Z,989.85
2022-09-28T08:28:53.960Z,989.87
2022-09-28T08:29:53.942Z,989.89
2022-09-28T08:30:54.145Z,989.87
2022-09-28T08:31:57.260Z,989.84
2022-09-28T08:32:54.919Z,989.85
2022-09-28T08:33:53.912Z,989.88
2022-09-28T08:34:53.960Z,989.85
2022-09-28T08:35:53.860Z,989.87
2022-09-28T08:36:53.872Z,989.87
2022-09-28T08:37:55.671Z,989.89
2022-09-28T08:38:53.830Z,989.91
2022-09-28T08:39:53.820Z,989.90
2022-09-28T08:40:54.015Z,989.87
2022-09-28T08:41:53.794Z,989.93
2022-09-28T08:42:53.802Z,989.91
2022-09-28T08:43:53.762Z,989.95
2022-09-28T08:44:53.761Z,989.93
2022-09-28T08:45:53.768Z,989.96
2022-09-28T08:46:53.724Z,989.96
2022-09-28T08:47:53.713Z,989.94
2022-09-28T08:49:13.302Z,989.95
2022-09-28T08:50:53.670Z,989.95
2022-09-28T08:51:53.669Z,989.95
2022-09-28T08:52:53.653Z,989.99
2022-09-28T08:53:53.778Z,989.99
2022-09-28T08:54:53.624Z,990.01
2022-09-28T08:55:53.604Z,990.00
2022-09-28T08:56:53.593Z,990.00
2022-09-28T08:57:54.534Z,990.03
2022-09-28T08:58:53.571Z,990.05
2022-09-28T08:59:53.594Z,990.02
2022-09-28T09:00:53.582Z,990.03
2022-09-28T09:01:56.058Z,990.06
2022-09-28T09:02:53.735Z,990.05
2022-09-28T09:03:53.503Z,990.06
2022-09-28T09:04:53.504Z,990.03
2022-09-28T09:05:53.491Z,990.01
2022-09-28T09:06:53.467Z,990.07
2022-09-28T09:07:53.454Z,990.05
2022-09-28T09:08:53.442Z,990.04
2022-09-28T09:09:53.426Z,990.04
2022-09-28T09:10:53.426Z,989.99
2022-09-28T09:11:53.415Z,989.99
2022-09-28T09:13:53.376Z,989.95
2022-09-28T09:14:53.364Z,990.02
2022-09-28T09:15:53.345Z,990.00
2022-09-28T09:16:53.404Z,990.04
2022-09-28T09:17:53.321Z,989.98
2022-09-28T09:18:53.320Z,989.97
2022-09-28T09:19:53.297Z,990.00
2022-09-28T09:20:53.286Z,989.98
2022-09-28T09:21:53.305Z,990.01
2022-09-28T09:22:53.281Z,989.93
2022-09-28T09:23:53.255Z,989.96
2022-09-28T09:24:53.236Z,989.95
2022-09-28T09:25:53.220Z,990.00
2022-09-28T09:26:53.226Z,989.95
2022-09-28T09:27:53.227Z,990.00
2022-09-28T09:28:53.203Z,990.03
2022-09-28T09:29:53.166Z,990.03
2022-09-28T09:30:53.170Z,990.01
2022-09-28T09:31:53.138Z,989.97
2022-09-28T09:32:53.125Z,989.99
2022-09-28T09:33:53.106Z,990.01
2022-09-28T09:34:53.105Z,990.02
2022-09-28T09:35:53.085Z,990.03
2022-09-28T09:36:53.066Z,990.06
2022-09-28T09:37:56.499Z,990.04
2022-09-28T09:38:54.058Z,990.07
2022-09-28T09:39:53.058Z,990.07
2022-09-28T09:40:53.112Z,990.06
2022-09-28T09:41:53.017Z,990.06
2022-09-28T09:42:53.017Z,990.09
2022-09-28T09:43:52.997Z,990.06
2022-09-28T09:44:53.007Z,990.07
2022-09-28T09:45:52.992Z,990.08
2022-09-28T09:46:52.946Z,990.08
2022-09-28T09:47:52.955Z,990.07
2022-09-28T09:48:52.928Z,990.03
2022-09-28T09:49:52.938Z,990.07
2022-09-28T09:50:52.896Z,990.04
2022-09-28T09:51:52.877Z,990.03
2022-09-28T09:52:52.868Z,989.99
2022-09-28T09:53:52.866Z,989.99
2022-09-28T09:54:52.859Z,989.96
2022-09-28T09:55:52.840Z,989.98
2022-09-28T09:56:52.829Z,989.99
2022-09-28T09:57:52.809Z,989.97
2022-09-28T09:58:52.798Z,989.94
2022-09-28T09:59:52.799Z,989.96
2022-09-28T10:00:52.849Z,989.95
2022-09-28T10:01:52.756Z,989.95
2022-09-28T10:02:52.800Z,989.91
2022-09-28T10:03:52.731Z,989.88
2022-09-28T10:04:52.730Z,989.88
2022-09-28T10:05:52.712Z,989.91
2022-09-28T10:06:52.698Z,989.93
2022-09-28T10:07:54.447Z,989.90
2022-09-28T10:08:52.670Z,989.85
2022-09-28T10:09:52.682Z,989.88
2022-09-28T10:10:52.645Z,989.90
2022-09-28T10:11:52.621Z,989.90
2022-09-28T10:12:52.618Z,989.88
2022-09-28T10:13:52.589Z,989.88
2022-09-28T10:14:52.599Z,989.85
2022-09-28T10:15:52.591Z,989.88
2022-09-28T10:16:52.595Z,989.88
2022-09-28T10:17:52.540Z,989.84
2022-09-28T10:18:52.591Z,989.90
2022-09-28T10:19:52.524Z,989.87
2022-09-28T10:20:52.532Z,989.89
2022-09-28T10:21:52.493Z,989.88
2022-09-28T10:22:52.483Z,989.86
2022-09-28T10:23:52.469Z,989.81
2022-09-28T10:24:52.456Z,989.89
2022-09-28T10:25:52.470Z,989.83
2022-09-28T10:26:52.428Z,989.82
2022-09-28T10:27:52.431Z,989.79
2022-09-28T10:28:52.403Z,989.78
2022-09-28T10:29:52.395Z,989.78
2022-09-28T10:30:52.464Z,989.79
2022-09-28T10:31:52.372Z,989.76
2022-09-28T10:32:52.363Z,989.78
2022-09-28T10:33:52.331Z,989.78
2022-09-28T10:34:52.362Z,989.77
2022-09-28T10:35:52.324Z,989.75
2022-09-28T10:36:52.303Z,989.76
2022-09-28T10:37:52.332Z,989.76
2022-09-28T10:38:52.287Z,989.72
2022-09-28T10:39:52.261Z,989.77
2022-09-28T10:40:52.285Z,989.77
2022-09-28T10:41:52.242Z,989.79
2022-09-28T10:42:52.233Z,989.80
2022-09-28T10:43:57.401Z,989.81
2022-09-28T10:44:53.213Z,989.84
2022-09-28T10:45:52.228Z,989.80
2022-09-28T10:46:52.162Z,989.82
2022-09-28T10:47:52.213Z,989.81
2022-09-28T10:48:52.151Z,989.80
2022-09-28T10:49:52.134Z,989.81
2022-09-28T10:50:52.125Z,989.79
2022-09-28T10:51:52.145Z,989.79
2022-09-28T10:52:52.151Z,989.82
2022-09-28T10:53:52.078Z,989.83
2022-09-28T10:54:52.067Z,989.78
2022-09-28T10:55:52.057Z,989.79
2022-09-28T10:56:52.065Z,989.84
2022-09-28T10:57:52.055Z,989.83
2022-09-28T10:58:52.014Z,989.84
2022-09-28T10:59:51.994Z,989.85
2022-09-28T11:00:52.124Z,989.79
2022-09-28T11:01:52.025Z,989.81
2022-09-28T11:02:52.114Z,989.83
2022-09-28T11:03:51.955Z,989.88
2022-09-28T11:04:51.932Z,989.85
2022-09-28T11:05:51.922Z,989.86
2022-09-28T11:06:51.935Z,989.87
2022-09-28T11:07:51.899Z,989.82
2022-09-28T11:08:51.905Z,989.88
2022-09-28T11:09:51.870Z,989.88
2022-09-28T11:10:51.856Z,989.85
2022-09-28T11:11:51.847Z,989.87
2022-09-28T11:12:51.910Z,989.84
2022-09-28T11:13:51.827Z,989.81
2022-09-28T11:14:51.805Z,989.95
2022-09-28T11:15:52.016Z,989.87
2022-09-28T11:16:51.888Z,989.90
2022-09-28T11:17:51.838Z,989.88
2022-09-28T11:18:51.755Z,989.87
2022-09-28T11:19:51.797Z,989.89
2022-09-28T11:20:51.795Z,989.88
2022-09-28T11:21:51.716Z,989.88
2022-09-28T11:22:53.522Z,989.87
2022-09-28T11:23:51.689Z,989.88
2022-09-28T11:24:51.687Z,989.88
2022-09-28T11:25:51.658Z,989.91
2022-09-28T11:26:51.648Z,989.91
2022-09-28T11:27:51.690Z,989.84
2022-09-28T11:28:51.751Z,989.89
2022-09-28T11:29:51.628Z,989.87
2022-09-28T11:30:51.652Z,989.92
2022-09-28T11:31:51.586Z,989.89
2022-09-28T11:32:51.577Z,989.90
2022-09-28T11:33:51.557Z,989.88
2022-09-28T11:35:00.064Z,989.94
2022-09-28T11:35:52.528Z,989.92
2022-09-28T11:36:51.618Z,989.84
2022-09-28T11:37:51.587Z,989.84
2022-09-28T11:38:51.511Z,989.88
2022-09-28T11:39:51.510Z,989.87
2022-09-28T11:40:51.503Z,989.91
2022-09-28T11:41:51.460Z,989.92
2022-09-28T11:42:51.486Z,989.95
2022-09-28T11:43:51.438Z,989.92
2022-09-28T11:44:51.420Z,989.93
2022-09-28T11:45:51.507Z,989.95
2022-09-28T11:46:51.389Z,989.96
2022-09-28T11:47:51.620Z,989.94
2022-09-28T11:48:51.359Z,989.97
2022-09-28T11:49:51.339Z,989.97
2022-09-28T11:50:51.335Z,989.98
2022-09-28T11:51:51.338Z,989.94
2022-09-28T11:52:51.350Z,989.94
2022-09-28T11:53:51.298Z,989.98
2022-09-28T11:54:51.290Z,989.97
2022-09-28T11:55:51.281Z,989.96
2022-09-28T11:56:51.278Z,989.94
2022-09-28T11:57:51.317Z,989.95
2022-09-28T11:58:51.293Z,989.97
2022-09-28T11:59:51.231Z,989.97
2022-09-28T12:00:51.211Z,989.98
2022-09-28T12:01:51.221Z,990.03
2022-09-28T12:02:51.251Z,989.99
2022-09-28T12:03:51.219Z,990.01
2022-09-28T12:04:51.151Z,990.02
2022-09-28T12:05:51.139Z,989.98
2022-09-28T12:06:51.129Z,989.99
2022-09-28T12:07:51.130Z,990.02
2022-09-28T12:08:51.113Z,990.04
2022-09-28T12:09:51.093Z,990.03
2022-09-28T12:10:51.069Z,990.08
2022-09-28T12:11:51.067Z,990.01
2022-09-28T12:12:51.062Z,990.09
2022-09-28T12:13:51.072Z,990.12
2022-09-28T12:14:51.020Z,990.03
2022-09-28T12:16:23.061Z,990.08
2022-09-28T12:17:05.823Z,990.11
2022-09-28T12:17:52.041Z,990.06
2022-09-28T12:18:51.018Z,990.06
2022-09-28T12:19:50.962Z,989.98
2022-09-28T12:20:51.128Z,989.97
2022-09-28T12:21:50.933Z,990.00
2022-09-28T12:22:50.922Z,989.98
2022-09-28T12:23:50.923Z,989.96
2022-09-28T12:24:50.951Z,989.99
2022-09-28T12:25:50.883Z,990.01
2022-09-28T12:26:50.881Z,990.02
2022-09-28T12:27:50.868Z,989.99
2022-09-28T12:28:50.862Z,990.03
2022-09-28T12:29:50.830Z,990.03
2022-09-28T12:30:50.838Z,990.04